PWSweather.com
Personal Weather Stations
Station Observations
STPETERS
BroadstairsGB

BroadstairsGB

Lat: 51.37, Lon: 1.423

Elevation: 141

Station Type: WH1081

Latest ConditionsUpdated 6:15:01 AM GMT Thursday, Jul 24, 2014
Currently Today's Max Today's Min Today's Average
Temperature 67.3°F19.6°C 67.6°F19.8°C 65.8°F18.8°C 66.5°F19.2°C
Dew Point 65.8°F18.8°C 66.2°F19.0°C 64.3°F17.9°C 64.9°F18.3°C
Winds 7.9 mph N12.7 kmh N 8.6 mph NE13.8 kmh NE - 7.3 mph 11.7 kmh
Wind Gusts 10.7 mph17.2 kmh 10.7 mph17.2 kmh - -
Humidity 95% 95% 90% 94%
Pressure 30.00 in1015.9 mb 30.02 in1016.6 mb 29.99 in1015.6 mb -
Hour Temp Dew Point Humidity Winds Wind Gusts Pressure Precip Precip Rate Daily Precip Total
06:15 AM 67.3°F19.6°C 65.8°F18.8°C 95% 7.9 mph N12.7 kmh N 10.7 mph17.2 kmh 30.00 in1015.9 mb 0.00 in0.0 mm 0.00 in/hr0.0 mm/hr 0.00 in0.0 mm
06:00 AM 67.1°F19.5°C 65.6°F18.7°C 95% 6.5 mph NNE10.5 kmh NNE 8.3 mph13.4 kmh 30.00 in1015.9 mb 0.00 in0.0 mm 0.00 in/hr0.0 mm/hr 0.00 in0.0 mm
05:45 AM 66.7°F19.3°C 65.3°F18.5°C 95% 6.4 mph NNE10.3 kmh NNE 9.2 mph14.8 kmh 29.99 in1015.6 mb 0.00 in0.0 mm 0.00 in/hr0.0 mm/hr 0.00 in0.0 mm
05:30 AM 66.4°F19.1°C 64.9°F18.3°C 95% 7.4 mph NE11.9 kmh NE 9.8 mph15.8 kmh 29.99 in1015.6 mb 0.00 in0.0 mm 0.00 in/hr0.0 mm/hr 0.00 in0.0 mm
05:15 AM 66.4°F19.1°C 64.9°F18.3°C 95% 7.1 mph NNE11.4 kmh NNE 9.2 mph14.8 kmh 29.99 in1015.6 mb 0.00 in0.0 mm 0.00 in/hr0.0 mm/hr 0.00 in0.0 mm
05:00 AM 66.2°F19.0°C 64.8°F18.2°C 95% 7.3 mph NE11.7 kmh NE 9.2 mph14.8 kmh 29.99 in1015.6 mb 0.00 in0.0 mm 0.00 in/hr0.0 mm/hr 0.00 in0.0 mm
04:45 AM 67.6°F19.8°C 66.2°F19.0°C 95% 8.3 mph NE13.4 kmh NE 10.7 mph17.2 kmh 29.99 in1015.6 mb 0.00 in0.0 mm 0.00 in/hr0.0 mm/hr 0.00 in0.0 mm
04:30 AM 65.8°F18.8°C 64.4°F18.0°C 95% 7.4 mph NE11.9 kmh NE 9.8 mph15.8 kmh 29.99 in1015.6 mb 0.00 in0.0 mm 0.00 in/hr0.0 mm/hr 0.00 in0.0 mm
04:15 AM 66.0°F18.9°C 64.6°F18.1°C 95% 7.8 mph NE12.6 kmh NE 9.8 mph15.8 kmh 29.99 in1015.6 mb 0.00 in0.0 mm 0.00 in/hr0.0 mm/hr 0.00 in0.0 mm
04:00 AM 66.0°F18.9°C 64.6°F18.1°C 95% 8.4 mph NE13.5 kmh NE 10.7 mph17.2 kmh 29.99 in1015.6 mb 0.00 in0.0 mm 0.00 in/hr0.0 mm/hr 0.00 in0.0 mm
03:45 AM 66.0°F18.9°C 64.6°F18.1°C 95% 8.2 mph NE13.2 kmh NE 10.7 mph17.2 kmh 29.99 in1015.6 mb 0.00 in0.0 mm 0.00 in/hr0.0 mm/hr 0.00 in0.0 mm
03:30 AM 66.0°F18.9°C 64.6°F18.1°C 95% 7.3 mph NNE11.7 kmh NNE 9.2 mph14.8 kmh 29.99 in1015.6 mb 0.00 in0.0 mm 0.00 in/hr0.0 mm/hr 0.00 in0.0 mm
03:15 AM 66.0°F18.9°C 64.6°F18.1°C 95% 7.7 mph NNE12.4 kmh NNE 9.8 mph15.8 kmh 29.99 in1015.6 mb 0.00 in0.0 mm 0.00 in/hr0.0 mm/hr 0.00 in0.0 mm
03:00 AM 66.2°F19.0°C 64.8°F18.2°C 95% 7.9 mph NE12.7 kmh NE 10.7 mph17.2 kmh 29.99 in1015.6 mb 0.00 in0.0 mm 0.00 in/hr0.0 mm/hr 0.00 in0.0 mm
02:45 AM 66.2°F19.0°C 64.8°F18.2°C 95% 6.9 mph NE11.1 kmh NE 9.2 mph14.8 kmh 29.99 in1015.6 mb 0.00 in0.0 mm 0.00 in/hr0.0 mm/hr 0.00 in0.0 mm
02:30 AM 66.4°F19.1°C 64.9°F18.3°C 95% 8.6 mph NE13.8 kmh NE 10.7 mph17.2 kmh 30.00 in1015.9 mb 0.00 in0.0 mm 0.00 in/hr0.0 mm/hr 0.00 in0.0 mm
02:15 AM 66.2°F19.0°C 64.8°F18.2°C 95% 8.1 mph NNE13.0 kmh NNE 9.8 mph15.8 kmh 30.00 in1015.9 mb 0.00 in0.0 mm 0.00 in/hr0.0 mm/hr 0.00 in0.0 mm
02:00 AM 66.2°F19.0°C 64.8°F18.2°C 95% 6.2 mph N10.0 kmh N 9.2 mph14.8 kmh 30.00 in1015.9 mb 0.00 in0.0 mm 0.00 in/hr0.0 mm/hr 0.00 in0.0 mm
01:45 AM 66.4°F19.1°C 64.9°F18.3°C 95% 6.9 mph NE11.1 kmh NE 9.2 mph14.8 kmh 30.01 in1016.3 mb 0.00 in0.0 mm 0.00 in/hr0.0 mm/hr 0.00 in0.0 mm
01:30 AM 66.4°F19.1°C 64.9°F18.3°C 95% 6.3 mph N10.1 kmh N 8.3 mph13.4 kmh 30.01 in1016.3 mb 0.00 in0.0 mm 0.00 in/hr0.0 mm/hr 0.00 in0.0 mm
01:15 AM 66.6°F19.2°C 64.8°F18.2°C 94% 7.3 mph NNE11.7 kmh NNE 9.8 mph15.8 kmh 30.01 in1016.3 mb 0.00 in0.0 mm 0.00 in/hr0.0 mm/hr 0.00 in0.0 mm
01:00 AM 66.9°F19.4°C 65.2°F18.4°C 94% 7.0 mph NNE11.3 kmh NNE 9.8 mph15.8 kmh 30.01 in1016.3 mb 0.00 in0.0 mm 0.00 in/hr0.0 mm/hr 0.00 in0.0 mm
12:45 AM 66.7°F19.3°C 64.7°F18.2°C 93% 6.7 mph NNE10.8 kmh NNE 7.6 mph12.2 kmh 30.02 in1016.6 mb 0.00 in0.0 mm 0.00 in/hr0.0 mm/hr 0.00 in0.0 mm
12:30 AM 66.9°F19.4°C 64.5°F18.1°C 92% 6.2 mph NNE10.0 kmh NNE 7.6 mph12.2 kmh 30.02 in1016.6 mb 0.00 in0.0 mm 0.00 in/hr0.0 mm/hr 0.00 in0.0 mm
12:15 AM 67.3°F19.6°C 64.6°F18.1°C 91% 6.4 mph NNE10.3 kmh NNE 9.8 mph15.8 kmh 30.02 in1016.6 mb 0.00 in0.0 mm 0.00 in/hr0.0 mm/hr 0.00 in0.0 mm
12:00 AM 67.3°F19.6°C 64.3°F17.9°C 90% 7.0 mph NNE11.3 kmh NNE 9.2 mph14.8 kmh 30.02 in1016.6 mb 0.00 in0.0 mm 0.00 in/hr0.0 mm/hr 0.00 in0.0 mm